Time;durP1;ratioP1;P1;durP2;ratioP2;P2;SDS_P1;SDS_P2;PMS_P1;PMS_P2;Temp;Humidity;BMP_temperature;BMP_pressure;BME280_temperature;BME280_humidity;BME280_pressure;Samples;Min_cycle;Max_cycle;Signal;HPM_P1;HPM_P2
2021/07/05 00:00:24;;;;;;;11.60;2.28;;;;;;;;;;5061633;28;37089;-80
2021/07/05 00:02:51;;;;;;;7.25;1.92;;;;;;;;;;5068879;28;38984;-79
2021/07/05 00:05:18;;;;;;;6.13;2.42;;;;;;;;;;5060844;28;37128;-79
2021/07/05 00:07:47;;;;;;;5.18;2.20;;;;;;;;;;5064585;28;35612;-79
2021/07/05 00:10:14;;;;;;;7.38;2.65;;;;;;;;;;5059977;27;40360;-80
2021/07/05 00:12:45;;;;;;;11.93;2.83;;;;;;;;;;5073899;28;38486;-80
2021/07/05 00:15:12;;;;;;;8.90;2.22;;;;;;;;;;5060986;28;38780;-79
2021/07/05 00:17:39;;;;;;;10.02;2.40;;;;;;;;;;5060397;28;37019;-80
2021/07/05 00:20:06;;;;;;;11.90;2.95;;;;;;;;;;5059210;28;38642;-79
2021/07/05 00:22:32;;;;;;;8.25;2.45;;;;;;;;;;5059930;28;40050;-80
2021/07/05 00:24:58;;;;;;;9.20;2.50;;;;;;;;;;5058268;28;38671;-80
2021/07/05 00:27:25;;;;;;;10.23;2.10;;;;;;;;;;5057320;28;37225;-80
2021/07/05 00:29:51;;;;;;;9.63;2.47;;;;;;;;;;5056165;28;39275;-80
2021/07/05 00:32:19;;;;;;;5.68;1.90;;;;;;;;;;5059379;28;39287;-80
2021/07/05 00:34:45;;;;;;;11.30;2.78;;;;;;;;;;5059023;28;39641;-80
2021/07/05 00:37:11;;;;;;;11.07;2.78;;;;;;;;;;5058974;28;38526;-80
2021/07/05 00:39:38;;;;;;;7.10;2.47;;;;;;;;;;5064692;28;39066;-80
2021/07/05 00:42:04;;;;;;;8.80;2.70;;;;;;;;;;5055455;28;39382;-79
2021/07/05 00:44:31;;;;;;;9.48;2.65;;;;;;;;;;5056501;28;38096;-79
2021/07/05 00:46:57;;;;;;;14.50;3.40;;;;;;;;;;5062404;28;36585;-80
2021/07/05 00:49:24;;;;;;;10.25;2.50;;;;;;;;;;5059394;28;38551;-79
2021/07/05 00:51:50;;;;;;;6.30;2.00;;;;;;;;;;5063916;28;39528;-80
2021/07/05 00:54:16;;;;;;;5.88;2.22;;;;;;;;;;5065249;28;38193;-79
2021/07/05 00:56:43;;;;;;;7.75;2.47;;;;;;;;;;5061987;28;37385;-80
2021/07/05 00:59:10;;;;;;;7.07;2.15;;;;;;;;;;5058076;28;39705;-79
2021/07/05 01:01:36;;;;;;;8.40;2.33;;;;;;;;;;5054293;28;39059;-79
2021/07/05 01:04:03;;;;;;;6.22;1.92;;;;;;;;;;5052042;28;38537;-80
2021/07/05 01:06:29;;;;;;;8.07;2.25;;;;;;;;;;5057476;28;37227;-80
2021/07/05 01:08:55;;;;;;;4.40;2.00;;;;;;;;;;5061127;28;38787;-80
2021/07/05 01:11:22;;;;;;;5.05;2.30;;;;;;;;;;5063099;28;38588;-79
2021/07/05 01:13:49;;;;;;;7.38;2.20;;;;;;;;;;5059987;28;36784;-80
2021/07/05 01:16:15;;;;;;;7.10;2.38;;;;;;;;;;5076782;28;38561;-79
2021/07/05 01:18:42;;;;;;;5.22;2.05;;;;;;;;;;5057474;28;39196;-79
2021/07/05 01:21:08;;;;;;;8.60;2.17;;;;;;;;;;5064520;28;36671;-79
2021/07/05 01:23:35;;;;;;;7.82;2.20;;;;;;;;;;5063646;28;35935;-80
2021/07/05 01:26:01;;;;;;;9.00;2.40;;;;;;;;;;5059090;28;35679;-79
2021/07/05 01:28:27;;;;;;;7.18;2.25;;;;;;;;;;5056652;28;46708;-79
2021/07/05 01:30:55;;;;;;;8.77;2.78;;;;;;;;;;5055793;28;38916;-79
2021/07/05 01:33:22;;;;;;;10.02;2.47;;;;;;;;;;5061221;28;38598;-79
2021/07/05 01:35:48;;;;;;;12.13;2.55;;;;;;;;;;5062568;28;37784;-80
2021/07/05 01:38:18;;;;;;;7.13;2.47;;;;;;;;;;5063231;28;40174;-81
2021/07/05 01:40:44;;;;;;;6.93;2.55;;;;;;;;;;5064867;28;37767;-80
2021/07/05 01:43:11;;;;;;;9.73;3.03;;;;;;;;;;5063350;28;37264;-80
2021/07/05 01:45:38;;;;;;;12.88;2.75;;;;;;;;;;5061651;28;38561;-80
2021/07/05 01:48:04;;;;;;;7.03;2.45;;;;;;;;;;5061244;28;37277;-79
2021/07/05 01:50:31;;;;;;;8.85;2.83;;;;;;;;;;5058225;28;37114;-80
2021/07/05 01:52:58;;;;;;;8.20;2.80;;;;;;;;;;5062682;28;38239;-79
2021/07/05 01:55:28;;;;;;;7.43;2.50;;;;;;;;;;5063220;28;37469;-80
2021/07/05 01:57:54;;;;;;;7.57;3.17;;;;;;;;;;5059966;28;37765;-79
2021/07/05 02:00:21;;;;;;;12.10;3.38;;;;;;;;;;5063697;27;40186;-79
2021/07/05 02:02:47;;;;;;;9.13;2.67;;;;;;;;;;5062164;28;38052;-80
2021/07/05 02:05:15;;;;;;;7.30;2.38;;;;;;;;;;5061605;27;37227;-80
2021/07/05 02:07:43;;;;;;;6.03;2.63;;;;;;;;;;5062072;28;40545;-80
2021/07/05 02:10:12;;;;;;;7.78;3.42;;;;;;;;;;5052151;28;38720;-80
2021/07/05 02:12:40;;;;;;;11.75;3.15;;;;;;;;;;5056290;28;38495;-80
2021/07/05 02:15:08;;;;;;;9.02;2.83;;;;;;;;;;5054797;27;37028;-79
2021/07/05 02:17:35;;;;;;;12.73;3.65;;;;;;;;;;5056607;28;37465;-79
2021/07/05 02:20:02;;;;;;;9.43;2.72;;;;;;;;;;5059364;28;37943;-79
2021/07/05 02:22:28;;;;;;;9.00;3.00;;;;;;;;;;5058483;28;47835;-80
2021/07/05 02:24:54;;;;;;;7.55;3.55;;;;;;;;;;5061891;28;37375;-79
2021/07/05 02:27:21;;;;;;;4.57;2.78;;;;;;;;;;5058175;28;39064;-79
2021/07/05 02:29:47;;;;;;;4.63;3.10;;;;;;;;;;5063218;28;39361;-79
2021/07/05 02:32:13;;;;;;;8.88;3.25;;;;;;;;;;5061651;27;38142;-79
2021/07/05 02:34:40;;;;;;;8.63;3.03;;;;;;;;;;5056766;28;38178;-79
2021/07/05 02:37:06;;;;;;;10.20;3.20;;;;;;;;;;5058146;28;38857;-79
2021/07/05 02:39:33;;;;;;;11.38;3.70;;;;;;;;;;5059373;28;39248;-79
2021/07/05 02:41:59;;;;;;;9.68;3.30;;;;;;;;;;5059540;28;38403;-79
2021/07/05 02:44:25;;;;;;;9.50;3.75;;;;;;;;;;5062579;28;37103;-80
2021/07/05 02:46:52;;;;;;;9.40;3.67;;;;;;;;;;5062788;28;39207;-80
2021/07/05 02:49:18;;;;;;;9.77;3.40;;;;;;;;;;5058780;28;36926;-79
2021/07/05 02:51:44;;;;;;;9.40;3.25;;;;;;;;;;5059510;28;36803;-79
2021/07/05 02:54:11;;;;;;;11.00;3.25;;;;;;;;;;5059597;28;37959;-80
2021/07/05 02:56:37;;;;;;;13.73;4.18;;;;;;;;;;5058391;28;39964;-80
2021/07/05 02:59:05;;;;;;;7.68;3.65;;;;;;;;;;5068512;28;37263;-80
2021/07/05 03:01:31;;;;;;;9.90;3.50;;;;;;;;;;5066492;28;37638;-80
2021/07/05 03:03:58;;;;;;;10.70;3.75;;;;;;;;;;5061134;28;37705;-80
2021/07/05 03:06:24;;;;;;;8.88;4.05;;;;;;;;;;5061563;28;39527;-80
2021/07/05 03:08:51;;;;;;;10.93;3.90;;;;;;;;;;5060970;28;39479;-80
2021/07/05 03:11:17;;;;;;;13.27;4.20;;;;;;;;;;5061906;28;37637;-79
2021/07/05 03:13:44;;;;;;;13.25;4.35;;;;;;;;;;5061211;28;37126;-80
2021/07/05 03:16:10;;;;;;;10.27;3.83;;;;;;;;;;5060081;28;39664;-80
2021/07/05 03:18:37;;;;;;;8.40;4.10;;;;;;;;;;5059814;28;39919;-80
2021/07/05 03:21:03;;;;;;;11.13;4.53;;;;;;;;;;5061322;28;38502;-78
2021/07/05 03:23:30;;;;;;;8.93;3.88;;;;;;;;;;5070385;28;36003;-79
2021/07/05 03:25:57;;;;;;;12.68;4.63;;;;;;;;;;5065912;28;39676;-80
2021/07/05 03:28:23;;;;;;;15.15;4.57;;;;;;;;;;5067795;28;39642;-80
2021/07/05 03:30:51;;;;;;;11.05;5.03;;;;;;;;;;5061613;28;38936;-80
2021/07/05 03:33:17;;;;;;;8.52;4.15;;;;;;;;;;5061380;28;37949;-79
2021/07/05 03:35:44;;;;;;;15.07;4.95;;;;;;;;;;5058377;28;37447;-79
2021/07/05 03:38:11;;;;;;;12.57;4.50;;;;;;;;;;5063886;28;37275;-80
2021/07/05 03:40:38;;;;;;;8.80;4.65;;;;;;;;;;5065675;28;38223;-79
2021/07/05 03:43:05;;;;;;;12.50;4.30;;;;;;;;;;5064219;28;37311;-80
2021/07/05 03:45:32;;;;;;;14.40;4.82;;;;;;;;;;5064891;28;38441;-80
2021/07/05 03:47:59;;;;;;;10.27;4.32;;;;;;;;;;5066666;28;39391;-80
2021/07/05 03:50:26;;;;;;;14.93;4.28;;;;;;;;;;5061590;28;38730;-79
2021/07/05 03:52:53;;;;;;;9.52;4.22;;;;;;;;;;5067530;28;39346;-80
2021/07/05 03:55:21;;;;;;;14.18;4.78;;;;;;;;;;5065194;28;40098;-79
2021/07/05 03:57:48;;;;;;;12.75;4.78;;;;;;;;;;5063576;28;35360;-80
2021/07/05 04:00:16;;;;;;;10.73;5.72;;;;;;;;;;5064503;28;36710;-80
2021/07/05 04:02:43;;;;;;;10.75;4.47;;;;;;;;;;5068661;28;37579;-78
2021/07/05 04:05:09;;;;;;;10.27;4.40;;;;;;;;;;5062838;27;40792;-80
2021/07/05 04:07:36;;;;;;;17.33;4.65;;;;;;;;;;5066031;28;39069;-80
2021/07/05 04:10:04;;;;;;;10.55;4.25;;;;;;;;;;5064879;28;38593;-78
2021/07/05 04:12:31;;;;;;;14.00;4.40;;;;;;;;;;5062626;28;48327;-81
2021/07/05 04:14:57;;;;;;;12.93;5.00;;;;;;;;;;5067051;28;37648;-80
2021/07/05 04:17:24;;;;;;;11.30;4.30;;;;;;;;;;5062559;27;38675;-79
2021/07/05 04:19:50;;;;;;;7.75;3.80;;;;;;;;;;5065351;28;38341;-79
2021/07/05 04:22:17;;;;;;;10.63;4.32;;;;;;;;;;5056545;28;37670;-80
2021/07/05 04:24:44;;;;;;;13.68;4.10;;;;;;;;;;5066102;28;40104;-80
2021/07/05 04:27:11;;;;;;;10.98;4.30;;;;;;;;;;5067463;28;39092;-80
2021/07/05 04:29:38;;;;;;;10.85;3.97;;;;;;;;;;5070033;28;38889;-79
2021/07/05 04:32:05;;;;;;;9.43;3.97;;;;;;;;;;5064265;28;37193;-79
2021/07/05 04:34:31;;;;;;;9.68;3.70;;;;;;;;;;5060000;28;38451;-80
2021/07/05 04:36:58;;;;;;;8.63;4.20;;;;;;;;;;5068157;28;39075;-80
2021/07/05 04:39:25;;;;;;;10.27;4.35;;;;;;;;;;5058114;28;38196;-79
2021/07/05 04:41:51;;;;;;;11.35;3.90;;;;;;;;;;5072365;28;36824;-79
2021/07/05 04:44:18;;;;;;;13.38;4.20;;;;;;;;;;5073454;28;40695;-81
2021/07/05 04:46:49;;;;;;;13.73;4.40;;;;;;;;;;5073418;28;37408;-79
2021/07/05 04:49:17;;;;;;;9.13;4.72;;;;;;;;;;5062432;28;39595;-79
2021/07/05 04:51:43;;;;;;;7.57;3.78;;;;;;;;;;5061391;28;37226;-80
2021/07/05 04:54:10;;;;;;;11.57;3.95;;;;;;;;;;5065789;28;39704;-79
2021/07/05 04:56:36;;;;;;;11.68;4.07;;;;;;;;;;5057816;28;37174;-80
2021/07/05 04:59:03;;;;;;;13.15;4.40;;;;;;;;;;5058321;28;36219;-80
2021/07/05 05:01:29;;;;;;;10.52;3.90;;;;;;;;;;5057704;28;35789;-80
2021/07/05 05:03:56;;;;;;;13.88;5.03;;;;;;;;;;5059260;28;37670;-80
2021/07/05 05:06:22;;;;;;;14.07;4.50;;;;;;;;;;5070333;28;37650;-80
2021/07/05 05:08:51;;;;;;;14.40;3.90;;;;;;;;;;5084742;28;39217;-81
2021/07/05 05:11:17;;;;;;;13.88;4.15;;;;;;;;;;5074299;28;36504;-79
2021/07/05 05:13:44;;;;;;;12.93;4.32;;;;;;;;;;5079719;28;37828;-79
2021/07/05 05:16:11;;;;;;;16.80;4.50;;;;;;;;;;5073047;28;39251;-79
2021/07/05 05:18:38;;;;;;;9.55;3.75;;;;;;;;;;5075860;28;36861;-80
2021/07/05 05:21:05;;;;;;;12.65;4.53;;;;;;;;;;5065621;28;35593;-80
2021/07/05 05:23:31;;;;;;;12.63;4.22;;;;;;;;;;5070015;28;39290;-79
2021/07/05 05:25:57;;;;;;;11.88;4.30;;;;;;;;;;5068697;28;38405;-80
2021/07/05 05:28:24;;;;;;;15.10;4.45;;;;;;;;;;5068276;28;37697;-80
2021/07/05 05:30:50;;;;;;;13.15;4.28;;;;;;;;;;5067167;28;35828;-79
2021/07/05 05:33:17;;;;;;;14.35;4.53;;;;;;;;;;5070129;28;38042;-79
2021/07/05 05:35:43;;;;;;;12.82;4.47;;;;;;;;;;5068120;28;38663;-80
2021/07/05 05:38:10;;;;;;;10.13;3.70;;;;;;;;;;5073536;28;39052;-79
2021/07/05 05:40:36;;;;;;;11.13;3.88;;;;;;;;;;5076937;28;35836;-80
2021/07/05 05:43:07;;;;;;;14.52;4.70;;;;;;;;;;5072727;28;38568;-79
2021/07/05 05:45:37;;;;;;;10.85;3.28;;;;;;;;;;5058322;28;38919;-79
2021/07/05 05:48:03;;;;;;;9.80;2.70;;;;;;;;;;5058747;28;37681;-78
2021/07/05 05:50:30;;;;;;;8.68;2.92;;;;;;;;;;5057422;28;37164;-79
2021/07/05 05:52:56;;;;;;;9.23;3.08;;;;;;;;;;5057990;28;38382;-78
2021/07/05 05:55:23;;;;;;;11.85;4.05;;;;;;;;;;5056016;28;38263;-79
2021/07/05 05:57:50;;;;;;;12.35;3.38;;;;;;;;;;5057760;28;37614;-79
2021/07/05 06:00:23;;;;;;;9.00;2.85;;;;;;;;;;5052603;28;38398;-79
2021/07/05 06:02:49;;;;;;;9.63;3.20;;;;;;;;;;5053452;28;38273;-79
2021/07/05 06:05:16;;;;;;;13.05;3.40;;;;;;;;;;5050617;27;39082;-79
2021/07/05 06:07:47;;;;;;;6.70;3.22;;;;;;;;;;5057595;28;37644;-79
2021/07/05 06:10:14;;;;;;;13.17;4.07;;;;;;;;;;5058527;28;37172;-78
2021/07/05 06:12:41;;;;;;;9.40;3.45;;;;;;;;;;5069190;28;40322;-78
2021/07/05 06:15:08;;;;;;;8.40;3.08;;;;;;;;;;5051734;28;40225;-78
2021/07/05 06:17:35;;;;;;;12.75;3.53;;;;;;;;;;5054869;28;37524;-78
2021/07/05 06:20:02;;;;;;;12.80;4.07;;;;;;;;;;5058886;28;36800;-78
2021/07/05 06:22:29;;;;;;;9.70;3.35;;;;;;;;;;5054316;28;37328;-78
2021/07/05 06:24:57;;;;;;;7.88;3.17;;;;;;;;;;5050364;28;37807;-79
2021/07/05 06:27:23;;;;;;;6.70;2.70;;;;;;;;;;5053554;28;39537;-79
2021/07/05 06:29:50;;;;;;;9.80;2.95;;;;;;;;;;5065744;28;37602;-80
2021/07/05 06:32:16;;;;;;;9.38;2.97;;;;;;;;;;5057080;28;40372;-79
2021/07/05 06:34:43;;;;;;;8.70;2.65;;;;;;;;;;5054267;28;39772;-79
2021/07/05 06:37:09;;;;;;;8.40;3.15;;;;;;;;;;5058463;28;38924;-79
2021/07/05 06:39:37;;;;;;;8.50;2.63;;;;;;;;;;5056502;28;37426;-80
2021/07/05 06:42:03;;;;;;;7.47;2.75;;;;;;;;;;5059792;28;38136;-79
2021/07/05 06:44:30;;;;;;;8.77;2.50;;;;;;;;;;5057043;28;38220;-79
2021/07/05 06:46:56;;;;;;;9.18;3.38;;;;;;;;;;5054011;28;39789;-79
2021/07/05 06:49:23;;;;;;;8.40;3.17;;;;;;;;;;5056674;28;37268;-79
2021/07/05 06:51:49;;;;;;;8.98;2.83;;;;;;;;;;5056780;28;39067;-80
2021/07/05 06:54:16;;;;;;;11.25;3.17;;;;;;;;;;5060161;28;37168;-80
2021/07/05 06:56:42;;;;;;;6.85;2.22;;;;;;;;;;5056698;28;37868;-79
2021/07/05 06:59:11;;;;;;;7.60;2.80;;;;;;;;;;5058222;28;36984;-79
2021/07/05 07:01:39;;;;;;;10.40;2.95;;;;;;;;;;5050734;28;39794;-80
2021/07/05 07:04:05;;;;;;;6.35;2.40;;;;;;;;;;5057403;28;38326;-80
2021/07/05 07:06:31;;;;;;;10.80;2.88;;;;;;;;;;5057982;27;37914;-80
2021/07/05 07:08:58;;;;;;;9.50;3.20;;;;;;;;;;5056458;28;36982;-80
2021/07/05 07:11:24;;;;;;;8.77;2.70;;;;;;;;;;5055698;28;37576;-81
2021/07/05 07:13:51;;;;;;;8.48;2.83;;;;;;;;;;5059707;28;37665;-79
2021/07/05 07:16:19;;;;;;;7.45;3.13;;;;;;;;;;5058789;28;37042;-80
2021/07/05 07:21:24;;;;;;;9.77;3.80;;;;;;;;;;5063614;27;38157;-79
2021/07/05 07:23:51;;;;;;;10.45;4.30;;;;;;;;;;5056447;28;38199;-80
2021/07/05 07:26:19;;;;;;;9.27;3.42;;;;;;;;;;5076414;28;38892;-80
2021/07/05 07:28:50;;;;;;;8.80;3.17;;;;;;;;;;5063745;28;36846;-80
2021/07/05 07:31:17;;;;;;;6.57;3.80;;;;;;;;;;5058457;28;37915;-79
2021/07/05 07:33:43;;;;;;;6.95;3.20;;;;;;;;;;5063756;28;38240;-79
2021/07/05 07:36:10;;;;;;;11.52;3.90;;;;;;;;;;5067092;28;37166;-80
2021/07/05 07:38:41;;;;;;;5.35;3.10;;;;;;;;;;5056383;28;38608;-80
2021/07/05 07:41:09;;;;;;;9.70;3.80;;;;;;;;;;5063754;28;39307;-80
2021/07/05 07:43:36;;;;;;;6.78;3.17;;;;;;;;;;5064858;28;40566;-81
2021/07/05 07:46:02;;;;;;;6.82;3.03;;;;;;;;;;5062807;28;38097;-80
2021/07/05 07:48:29;;;;;;;7.80;3.10;;;;;;;;;;5064928;28;36536;-79
2021/07/05 07:50:55;;;;;;;7.95;3.28;;;;;;;;;;5069308;28;40423;-80
2021/07/05 07:53:21;;;;;;;6.63;2.65;;;;;;;;;;5071562;28;40401;-80
2021/07/05 07:55:48;;;;;;;6.32;2.88;;;;;;;;;;5065950;28;39044;-80
2021/07/05 07:58:14;;;;;;;6.30;2.47;;;;;;;;;;5073070;28;35131;-80
2021/07/05 08:00:41;;;;;;;4.72;2.10;;;;;;;;;;5068791;28;37872;-80
2021/07/05 08:03:07;;;;;;;5.78;2.63;;;;;;;;;;5069592;28;38749;-80
2021/07/05 08:05:35;;;;;;;7.15;2.50;;;;;;;;;;5058829;28;39150;-79
2021/07/05 08:08:01;;;;;;;6.88;2.75;;;;;;;;;;5067276;28;35603;-80
2021/07/05 08:10:30;;;;;;;8.65;2.67;;;;;;;;;;5068990;28;47131;-79
2021/07/05 08:12:57;;;;;;;5.88;2.22;;;;;;;;;;5088803;28;38842;-79
2021/07/05 08:15:24;;;;;;;7.10;2.20;;;;;;;;;;5087721;28;36857;-82
2021/07/05 08:17:56;;;;;;;8.68;2.33;;;;;;;;;;5093154;28;37056;-83
2021/07/05 08:23:04;;;;;;;7.85;2.33;;;;;;;;;;5911900;22;20964;-80
2021/07/05 08:51:59;;;;;;;7.50;2.22;;;;;;;;;;6085754;22;21475;-81
2021/07/05 09:00:43;;;;;;;5.55;1.88;;;;;;;;;;5338077;22;20029;-82
2021/07/05 09:03:13;;;;;;;11.73;1.92;;;;;;;;;;5589302;22;40080;-84
2021/07/05 09:37:12;;;;;;;4.50;2.08;;;;;;;;;;5417887;22;20021;-79
2021/07/05 09:42:48;;;;;;;5.72;2.03;;;;;;;;;;5126849;22;20029;-82
2021/07/05 10:51:12;;;;;;;4.85;2.75;;;;;;;;;;5073283;28;20046;-82
2021/07/05 10:53:44;;;;;;;3.50;2.90;;;;;;;;;;5057519;28;39019;-83
2021/07/05 11:15:48;;;;;;;9.90;3.65;;;;;;;;;;5473939;22;20037;-79
2021/07/05 11:21:07;;;;;;;6.18;3.47;;;;;;;;;;5034212;28;38724;-82
2021/07/05 11:23:57;;;;;;;7.53;3.67;;;;;;;;;;5068725;28;38617;-83
2021/07/05 11:26:25;;;;;;;5.43;3.45;;;;;;;;;;5059555;28;38624;-82
2021/07/05 11:29:13;;;;;;;7.35;4.38;;;;;;;;;;5101090;22;38849;-81
2021/07/05 11:32:04;;;;;;;4.28;3.13;;;;;;;;;;5079794;28;49839;-81
2021/07/05 11:34:32;;;;;;;7.38;3.80;;;;;;;;;;5074018;28;47410;-79
2021/07/05 11:39:35;;;;;;;5.50;3.50;;;;;;;;;;5088634;22;20041;-83
2021/07/05 11:45:40;;;;;;;7.25;4.07;;;;;;;;;;5081120;28;38616;-81
2021/07/05 11:51:32;;;;;;;7.72;3.70;;;;;;;;;;5107353;27;40192;-82
2021/07/05 11:54:15;;;;;;;5.90;3.60;;;;;;;;;;5168556;22;39333;-82
2021/07/05 11:56:58;;;;;;;4.22;3.28;;;;;;;;;;5078359;28;47681;-82
2021/07/05 11:59:37;;;;;;;7.43;3.17;;;;;;;;;;5091454;28;39440;-80
2021/07/05 12:02:12;;;;;;;6.00;3.30;;;;;;;;;;5496204;22;38518;-82
2021/07/05 12:07:24;;;;;;;3.78;3.25;;;;;;;;;;5924205;22;20038;-82
2021/07/05 12:09:52;;;;;;;7.18;4.57;;;;;;;;;;5088478;28;37424;-78
2021/07/05 12:12:38;;;;;;;5.07;3.55;;;;;;;;;;5059245;28;40138;-81
2021/07/05 12:41:27;;;;;;;3.92;3.53;;;;;;;;;;5083423;22;20542;-83
2021/07/05 12:44:09;;;;;;;4.40;2.88;;;;;;;;;;5098019;28;38425;-81
2021/07/05 12:46:36;;;;;;;4.72;2.85;;;;;;;;;;5087764;28;48943;-82
2021/07/05 12:49:03;;;;;;;6.25;3.30;;;;;;;;;;5063943;28;37372;-83
2021/07/05 12:51:30;;;;;;;6.28;2.80;;;;;;;;;;5085387;28;38156;-82
2021/07/05 12:54:15;;;;;;;4.95;2.85;;;;;;;;;;5078443;28;39142;-82
2021/07/05 12:56:44;;;;;;;5.53;3.13;;;;;;;;;;5066198;28;48516;-81
2021/07/05 12:59:23;;;;;;;4.13;3.00;;;;;;;;;;5082252;28;35936;-81
2021/07/05 13:01:50;;;;;;;3.80;2.45;;;;;;;;;;5074742;28;37881;-81
2021/07/05 13:04:21;;;;;;;3.90;2.60;;;;;;;;;;5070810;28;41583;-81
2021/07/05 13:07:00;;;;;;;3.90;2.30;;;;;;;;;;5076157;28;39152;-81
2021/07/05 13:09:29;;;;;;;5.45;2.50;;;;;;;;;;5059304;28;37219;-81
2021/07/05 13:12:06;;;;;;;6.07;2.47;;;;;;;;;;5083122;28;39473;-81
2021/07/05 13:14:42;;;;;;;5.75;2.90;;;;;;;;;;5072193;28;48506;-80
2021/07/05 13:17:17;;;;;;;3.80;2.30;;;;;;;;;;5072614;28;37424;-81
2021/07/05 13:19:45;;;;;;;3.30;1.80;;;;;;;;;;5074178;28;36944;-80
2021/07/05 13:22:21;;;;;;;2.80;2.10;;;;;;;;;;5066474;28;38405;-80
2021/07/05 13:24:49;;;;;;;3.28;2.17;;;;;;;;;;5069490;28;37280;-81
2021/07/05 13:27:30;;;;;;;2.20;2.00;;;;;;;;;;5087693;28;37057;-80
2021/07/05 13:30:10;;;;;;;2.75;1.88;;;;;;;;;;5107879;22;37319;-81
2021/07/05 13:32:49;;;;;;;3.60;2.10;;;;;;;;;;5065492;28;48783;-79
2021/07/05 13:35:15;;;;;;;2.95;2.10;;;;;;;;;;5059427;28;37727;-79
2021/07/05 13:37:46;;;;;;;2.55;1.90;;;;;;;;;;5072251;28;36819;-80
2021/07/05 13:40:14;;;;;;;2.97;2.20;;;;;;;;;;5072023;28;36260;-78
2021/07/05 13:42:49;;;;;;;3.92;2.47;;;;;;;;;;5075663;28;39446;-80
2021/07/05 13:45:23;;;;;;;2.47;2.08;;;;;;;;;;5067241;28;38702;-80
2021/07/05 13:47:53;;;;;;;2.97;2.35;;;;;;;;;;5074668;28;37955;-80
2021/07/05 13:50:23;;;;;;;3.55;2.10;;;;;;;;;;5074554;28;37852;-80
2021/07/05 13:52:54;;;;;;;2.60;2.10;;;;;;;;;;5072714;28;39300;-80
2021/07/05 13:55:21;;;;;;;3.67;2.25;;;;;;;;;;5074206;28;37933;-81
2021/07/05 13:57:48;;;;;;;2.70;1.98;;;;;;;;;;5067146;28;37636;-81
2021/07/05 14:00:15;;;;;;;1.95;1.80;;;;;;;;;;5065659;28;36022;-81
2021/07/05 14:02:42;;;;;;;1.85;1.50;;;;;;;;;;5067358;28;37460;-80
2021/07/05 14:05:15;;;;;;;3.78;1.80;;;;;;;;;;5071902;28;39136;-80
2021/07/05 14:07:42;;;;;;;4.18;1.77;;;;;;;;;;5071418;28;38551;-81
2021/07/05 14:10:08;;;;;;;2.38;1.38;;;;;;;;;;5071116;28;35877;-79
2021/07/05 14:12:35;;;;;;;1.80;1.30;;;;;;;;;;5067738;28;38187;-80
2021/07/05 14:15:02;;;;;;;3.13;1.25;;;;;;;;;;5056310;28;38813;-78
2021/07/05 14:17:28;;;;;;;2.78;1.25;;;;;;;;;;5071187;28;36591;-80
2021/07/05 14:19:55;;;;;;;2.33;1.67;;;;;;;;;;5061363;28;38014;-80
2021/07/05 14:22:21;;;;;;;1.80;1.23;;;;;;;;;;5084696;28;39280;-81
2021/07/05 14:24:49;;;;;;;2.28;1.30;;;;;;;;;;5092865;28;38725;-82
2021/07/05 14:27:18;;;;;;;1.80;1.10;;;;;;;;;;5076949;28;37149;-81
2021/07/05 14:29:45;;;;;;;3.42;1.33;;;;;;;;;;5083087;28;36899;-81
2021/07/05 14:32:11;;;;;;;2.45;1.70;;;;;;;;;;5081567;28;38486;-81
2021/07/05 14:34:55;;;;;;;1.70;1.60;;;;;;;;;;5080092;28;39965;-82
2021/07/05 14:37:26;;;;;;;3.03;1.50;;;;;;;;;;5079672;28;38582;-82
2021/07/05 14:40:06;;;;;;;3.15;1.80;;;;;;;;;;5080335;28;36783;-82
2021/07/05 14:42:44;;;;;;;3.03;1.58;;;;;;;;;;5074254;28;48268;-83
2021/07/05 14:45:13;;;;;;;1.92;1.70;;;;;;;;;;5079698;28;38945;-81
2021/07/05 14:47:43;;;;;;;2.70;1.83;;;;;;;;;;5092599;28;37751;-80
2021/07/05 14:50:11;;;;;;;2.55;1.88;;;;;;;;;;5084273;28;36854;-81
2021/07/05 14:52:41;;;;;;;1.65;1.55;;;;;;;;;;5091373;28;39361;-82
2021/07/05 14:55:10;;;;;;;1.92;1.27;;;;;;;;;;5087667;28;37762;-82
2021/07/05 14:57:50;;;;;;;2.40;1.30;;;;;;;;;;5079114;28;38504;-82
2021/07/05 15:00:36;;;;;;;2.72;1.50;;;;;;;;;;5090085;28;37028;-81
2021/07/05 15:03:11;;;;;;;4.35;1.63;;;;;;;;;;5089702;28;38498;-82
2021/07/05 15:05:38;;;;;;;2.08;1.40;;;;;;;;;;5082236;28;38487;-81
2021/07/05 15:08:12;;;;;;;3.05;1.63;;;;;;;;;;5094773;28;38014;-82
2021/07/05 15:10:39;;;;;;;2.28;1.40;;;;;;;;;;5084666;28;37047;-81
2021/07/05 15:13:17;;;;;;;2.75;1.48;;;;;;;;;;5083350;28;38803;-81
2021/07/05 15:15:49;;;;;;;2.30;1.30;;;;;;;;;;5089766;28;37920;-82
2021/07/05 15:18:17;;;;;;;1.98;1.25;;;;;;;;;;5143755;22;38595;-79
2021/07/05 15:23:50;;;;;;;1.80;1.50;;;;;;;;;;5084167;28;50534;-80
2021/07/05 15:26:18;;;;;;;2.13;1.90;;;;;;;;;;5081656;28;37930;-80
2021/07/05 15:31:39;;;;;;;;;;;;;;;;;;;;;
2021/07/05 15:34:07;;;;;;;4.10;1.60;;;;;;;;;;5080698;28;38790;-80
2021/07/05 15:36:36;;;;;;;3.80;1.25;;;;;;;;;;5253104;22;38306;-82
2021/07/05 15:41:39;;;;;;;2.67;1.40;;;;;;;;;;5490114;22;20036;-80
2021/07/05 15:44:14;;;;;;;2.63;1.58;;;;;;;;;;5096095;28;38922;-81
2021/07/05 15:46:40;;;;;;;3.20;1.67;;;;;;;;;;5096785;28;39031;-81
2021/07/05 15:49:07;;;;;;;2.53;1.40;;;;;;;;;;5103899;28;38412;-81
2021/07/05 15:51:35;;;;;;;3.97;1.58;;;;;;;;;;5116107;28;36685;-80
2021/07/05 15:54:02;;;;;;;2.67;1.65;;;;;;;;;;5089247;28;40303;-81
2021/07/05 15:56:28;;;;;;;3.17;1.60;;;;;;;;;;5077340;28;46978;-80
2021/07/05 15:59:00;;;;;;;2.70;1.20;;;;;;;;;;5089029;28;37043;-81
2021/07/05 16:01:28;;;;;;;2.45;1.40;;;;;;;;;;5093903;28;36721;-80
2021/07/05 16:03:59;;;;;;;2.83;1.40;;;;;;;;;;5084638;28;39323;-80
2021/07/05 16:06:26;;;;;;;4.38;1.55;;;;;;;;;;5073421;28;38587;-81
2021/07/05 16:08:52;;;;;;;2.83;1.92;;;;;;;;;;5073721;28;37726;-80
2021/07/05 16:11:19;;;;;;;4.13;1.80;;;;;;;;;;5069053;28;36801;-80
2021/07/05 16:13:46;;;;;;;1.90;1.70;;;;;;;;;;5076861;28;39296;-80
2021/07/05 16:16:14;;;;;;;3.47;2.13;;;;;;;;;;5077267;28;38626;-80
2021/07/05 16:18:41;;;;;;;2.35;1.75;;;;;;;;;;5082792;28;38572;-79
2021/07/05 16:21:09;;;;;;;1.73;1.60;;;;;;;;;;5084701;28;35463;-82
2021/07/05 16:23:40;;;;;;;2.97;2.05;;;;;;;;;;5083132;28;38843;-81
2021/07/05 16:26:08;;;;;;;3.97;2.28;;;;;;;;;;5088216;28;38170;-82
2021/07/05 16:28:35;;;;;;;3.53;2.38;;;;;;;;;;5080208;28;38482;-81
2021/07/05 16:31:02;;;;;;;3.85;2.50;;;;;;;;;;5090458;28;36220;-81
2021/07/05 16:33:30;;;;;;;3.55;2.30;;;;;;;;;;5094655;28;37869;-82
2021/07/05 16:38:42;;;;;;;3.08;2.55;;;;;;;;;;5427704;22;20049;-81
2021/07/05 16:43:57;;;;;;;4.75;2.00;;;;;;;;;;5591766;22;20013;-82
2021/07/05 16:51:46;;;;;;;5.05;2.30;;;;;;;;;;5638865;22;20052;-82
2021/07/05 16:54:18;;;;;;;4.55;2.60;;;;;;;;;;5057293;28;38932;-82
2021/07/05 16:56:54;;;;;;;3.10;1.77;;;;;;;;;;5070039;27;39955;-82
2021/07/05 16:59:24;;;;;;;2.58;1.73;;;;;;;;;;5066094;28;38281;-82
2021/07/05 17:25:19;;;;;;;4.43;2.05;;;;;;;;;;6174342;22;20016;-81
2021/07/05 17:30:23;;;;;;;4.35;2.20;;;;;;;;;;5916109;22;20037;-82
2021/07/05 17:41:22;;;;;;;3.33;1.95;;;;;;;;;;5103735;22;20034;-79
2021/07/05 17:43:53;;;;;;;2.80;2.22;;;;;;;;;;5084242;28;31991;-80
2021/07/05 17:49:00;;;;;;;3.75;2.35;;;;;;;;;;5131033;22;20032;-81
2021/07/05 17:51:27;;;;;;;4.93;2.25;;;;;;;;;;5917166;22;38027;-79
2021/07/05 17:54:07;;;;;;;4.05;2.30;;;;;;;;;;5347119;22;35549;-82
2021/07/05 18:04:24;;;;;;;4.28;2.10;;;;;;;;;;6072561;22;21090;-82
2021/07/05 18:14:40;;;;;;;3.67;2.25;;;;;;;;;;5409133;22;20037;-82
2021/07/05 18:19:55;;;;;;;2.78;2.10;;;;;;;;;;5623519;22;20049;-83
2021/07/05 18:22:24;;;;;;;3.35;2.22;;;;;;;;;;5085985;28;38501;-83
2021/07/05 18:24:53;;;;;;;5.35;2.80;;;;;;;;;;5257438;22;37862;-82
2021/07/05 18:27:23;;;;;;;4.10;2.60;;;;;;;;;;5079816;28;38876;-84
2021/07/05 18:32:27;;;;;;;5.57;2.38;;;;;;;;;;5476046;22;20204;-81
2021/07/05 18:37:32;;;;;;;3.45;2.40;;;;;;;;;;5721649;22;20033;-82
2021/07/05 18:40:01;;;;;;;3.40;2.22;;;;;;;;;;5079862;28;39839;-82
2021/07/05 18:45:06;;;;;;;2.75;2.05;;;;;;;;;;5813485;22;20045;-82
2021/07/05 18:47:35;;;;;;;3.58;2.10;;;;;;;;;;5082279;28;48617;-83
2021/07/05 18:50:10;;;;;;;2.38;2.10;;;;;;;;;;5090353;28;37227;-82
2021/07/05 18:55:18;;;;;;;3.22;2.70;;;;;;;;;;5816311;22;20026;-84
2021/07/05 18:57:44;;;;;;;2.85;2.08;;;;;;;;;;5083093;28;38797;-82
2021/07/05 19:00:18;;;;;;;3.65;2.88;;;;;;;;;;5070434;28;38481;-83
2021/07/05 19:05:22;;;;;;;3.38;2.50;;;;;;;;;;5593546;22;20060;-83
2021/07/05 19:07:55;;;;;;;3.10;2.50;;;;;;;;;;5088672;28;40100;-83
2021/07/05 19:16:02;;;;;;;3.30;2.60;;;;;;;;;;5910093;22;20037;-80
2021/07/05 19:26:50;;;;;;;3.92;2.55;;;;;;;;;;5821299;22;20027;31
2021/07/05 19:37:47;;;;;;;4.90;2.88;;;;;;;;;;5740608;22;20041;-83
2021/07/05 19:40:17;;;;;;;4.07;2.25;;;;;;;;;;5081779;28;42103;-83
2021/07/05 20:01:02;;;;;;;4.80;3.58;;;;;;;;;;5486084;22;20285;-82
2021/07/05 20:03:33;;;;;;;4.80;2.80;;;;;;;;;;5259140;22;47428;-83
2021/07/05 20:08:36;;;;;;;4.10;3.40;;;;;;;;;;5406310;22;20034;-82
2021/07/05 20:11:05;;;;;;;4.30;3.85;;;;;;;;;;5068336;28;37641;-83
2021/07/05 20:13:33;;;;;;;4.80;3.92;;;;;;;;;;5075981;28;39288;-82
2021/07/05 20:18:42;;;;;;;4.45;3.80;;;;;;;;;;5431210;22;19917;-80
2021/07/05 20:21:10;;;;;;;4.72;4.20;;;;;;;;;;5089821;28;39353;-80